sensor_id;sensor_type;location;lat;lon;timestamp;P1;durP1;ratioP1;P2;durP2;ratioP2
13801;SDS011;6972;51.518;6.918;2023-02-20T00:00:42;12.73;;;5.63;;
13801;SDS011;6972;51.518;6.918;2023-02-20T00:03:09;9.80;;;5.43;;
13801;SDS011;6972;51.518;6.918;2023-02-20T00:05:34;10.80;;;6.23;;
13801;SDS011;6972;51.518;6.918;2023-02-20T00:08:03;9.07;;;5.63;;
13801;SDS011;6972;51.518;6.918;2023-02-20T00:10:30;15.63;;;6.73;;
13801;SDS011;6972;51.518;6.918;2023-02-20T00:12:56;12.30;;;6.33;;
13801;SDS011;6972;51.518;6.918;2023-02-20T00:15:22;11.40;;;7.00;;
13801;SDS011;6972;51.518;6.918;2023-02-20T00:17:49;12.93;;;6.23;;
13801;SDS011;6972;51.518;6.918;2023-02-20T00:20:18;8.57;;;5.53;;
13801;SDS011;6972;51.518;6.918;2023-02-20T00:22:46;11.33;;;5.83;;
13801;SDS011;6972;51.518;6.918;2023-02-20T00:25:12;12.67;;;5.90;;
13801;SDS011;6972;51.518;6.918;2023-02-20T00:27:39;12.87;;;6.77;;
13801;SDS011;6972;51.518;6.918;2023-02-20T00:30:06;9.33;;;6.20;;
13801;SDS011;6972;51.518;6.918;2023-02-20T00:32:32;10.97;;;6.77;;
13801;SDS011;6972;51.518;6.918;2023-02-20T00:34:58;13.43;;;6.43;;
13801;SDS011;6972;51.518;6.918;2023-02-20T00:37:24;13.50;;;6.83;;
13801;SDS011;6972;51.518;6.918;2023-02-20T00:39:50;8.60;;;6.30;;
13801;SDS011;6972;51.518;6.918;2023-02-20T00:42:16;13.90;;;6.83;;
13801;SDS011;6972;51.518;6.918;2023-02-20T00:44:42;10.67;;;6.73;;
13801;SDS011;6972;51.518;6.918;2023-02-20T00:47:08;14.30;;;7.83;;
13801;SDS011;6972;51.518;6.918;2023-02-20T00:49:34;13.80;;;7.10;;
13801;SDS011;6972;51.518;6.918;2023-02-20T00:52:02;12.77;;;7.13;;
13801;SDS011;6972;51.518;6.918;2023-02-20T00:54:28;14.13;;;7.83;;
13801;SDS011;6972;51.518;6.918;2023-02-20T00:56:54;13.17;;;7.10;;
13801;SDS011;6972;51.518;6.918;2023-02-20T00:59:19;13.80;;;8.10;;
13801;SDS011;6972;51.518;6.918;2023-02-20T01:01:45;15.07;;;8.97;;
13801;SDS011;6972;51.518;6.918;2023-02-20T01:04:11;15.33;;;8.20;;
13801;SDS011;6972;51.518;6.918;2023-02-20T01:06:37;13.87;;;9.20;;
13801;SDS011;6972;51.518;6.918;2023-02-20T01:09:03;14.17;;;8.93;;
13801;SDS011;6972;51.518;6.918;2023-02-20T01:11:29;16.13;;;8.57;;
13801;SDS011;6972;51.518;6.918;2023-02-20T01:13:55;18.67;;;9.00;;
13801;SDS011;6972;51.518;6.918;2023-02-20T01:16:21;18.90;;;9.13;;
13801;SDS011;6972;51.518;6.918;2023-02-20T01:18:50;19.13;;;10.13;;
13801;SDS011;6972;51.518;6.918;2023-02-20T01:21:16;17.00;;;9.30;;
13801;SDS011;6972;51.518;6.918;2023-02-20T01:23:42;16.17;;;9.53;;
13801;SDS011;6972;51.518;6.918;2023-02-20T01:26:08;16.93;;;9.43;;
13801;SDS011;6972;51.518;6.918;2023-02-20T01:28:34;14.43;;;8.80;;
13801;SDS011;6972;51.518;6.918;2023-02-20T01:30:59;16.73;;;9.90;;
13801;SDS011;6972;51.518;6.918;2023-02-20T01:33:25;15.93;;;9.20;;
13801;SDS011;6972;51.518;6.918;2023-02-20T01:35:52;16.90;;;9.93;;
13801;SDS011;6972;51.518;6.918;2023-02-20T01:38:18;16.17;;;8.97;;
13801;SDS011;6972;51.518;6.918;2023-02-20T01:40:47;14.70;;;8.63;;
13801;SDS011;6972;51.518;6.918;2023-02-20T01:43:13;13.70;;;9.07;;
13801;SDS011;6972;51.518;6.918;2023-02-20T01:45:40;17.67;;;9.30;;
13801;SDS011;6972;51.518;6.918;2023-02-20T01:48:11;14.90;;;8.73;;
13801;SDS011;6972;51.518;6.918;2023-02-20T01:50:44;18.63;;;9.90;;
13801;SDS011;6972;51.518;6.918;2023-02-20T01:53:12;11.33;;;8.23;;
13801;SDS011;6972;51.518;6.918;2023-02-20T01:55:43;13.57;;;9.30;;
13801;SDS011;6972;51.518;6.918;2023-02-20T01:58:28;15.67;;;9.13;;
13801;SDS011;6972;51.518;6.918;2023-02-20T02:00:58;19.83;;;9.47;;
13801;SDS011;6972;51.518;6.918;2023-02-20T02:03:25;14.67;;;9.60;;
13801;SDS011;6972;51.518;6.918;2023-02-20T02:05:59;15.33;;;9.50;;
13801;SDS011;6972;51.518;6.918;2023-02-20T02:08:29;16.47;;;9.57;;
13801;SDS011;6972;51.518;6.918;2023-02-20T02:13:31;16.50;;;9.50;;
13801;SDS011;6972;51.518;6.918;2023-02-20T02:33:59;16.63;;;10.80;;
13801;SDS011;6972;51.518;6.918;2023-02-20T02:39:58;17.33;;;10.47;;
13801;SDS011;6972;51.518;6.918;2023-02-20T02:42:16;19.50;;;10.60;;
13801;SDS011;6972;51.518;6.918;2023-02-20T02:52:24;21.43;;;12.17;;
13801;SDS011;6972;51.518;6.918;2023-02-20T02:55:05;20.47;;;11.97;;
13801;SDS011;6972;51.518;6.918;2023-02-20T02:57:32;21.60;;;11.23;;
13801;SDS011;6972;51.518;6.918;2023-02-20T03:00:03;21.73;;;12.60;;
13801;SDS011;6972;51.518;6.918;2023-02-20T03:02:41;20.33;;;11.80;;
13801;SDS011;6972;51.518;6.918;2023-02-20T03:05:12;19.10;;;12.30;;
13801;SDS011;6972;51.518;6.918;2023-02-20T03:07:42;22.90;;;12.27;;
13801;SDS011;6972;51.518;6.918;2023-02-20T03:10:12;19.60;;;12.40;;
13801;SDS011;6972;51.518;6.918;2023-02-20T03:12:44;23.10;;;12.57;;
13801;SDS011;6972;51.518;6.918;2023-02-20T03:18:09;23.27;;;12.50;;
13801;SDS011;6972;51.518;6.918;2023-02-20T03:20:52;23.80;;;12.53;;
13801;SDS011;6972;51.518;6.918;2023-02-20T03:23:22;24.90;;;13.10;;
13801;SDS011;6972;51.518;6.918;2023-02-20T03:26:03;33.77;;;13.00;;
13801;SDS011;6972;51.518;6.918;2023-02-20T03:28:37;22.43;;;12.50;;
13801;SDS011;6972;51.518;6.918;2023-02-20T03:33:51;22.77;;;12.90;;
13801;SDS011;6972;51.518;6.918;2023-02-20T03:36:59;22.30;;;13.13;;
13801;SDS011;6972;51.518;6.918;2023-02-20T03:39:48;22.77;;;12.87;;
13801;SDS011;6972;51.518;6.918;2023-02-20T03:42:36;22.73;;;12.93;;
13801;SDS011;6972;51.518;6.918;2023-02-20T03:45:24;25.13;;;12.63;;
13801;SDS011;6972;51.518;6.918;2023-02-20T03:47:52;24.27;;;13.73;;
13801;SDS011;6972;51.518;6.918;2023-02-20T03:50:21;26.33;;;12.90;;
13801;SDS011;6972;51.518;6.918;2023-02-20T03:53:06;23.03;;;12.93;;
13801;SDS011;6972;51.518;6.918;2023-02-20T03:55:32;25.43;;;12.63;;
13801;SDS011;6972;51.518;6.918;2023-02-20T03:57:59;25.10;;;12.80;;
13801;SDS011;6972;51.518;6.918;2023-02-20T04:00:31;23.80;;;13.07;;
13801;SDS011;6972;51.518;6.918;2023-02-20T04:02:59;22.03;;;13.33;;
13801;SDS011;6972;51.518;6.918;2023-02-20T04:05:32;24.73;;;13.87;;
13801;SDS011;6972;51.518;6.918;2023-02-20T04:08:05;26.17;;;12.10;;
13801;SDS011;6972;51.518;6.918;2023-02-20T04:10:37;24.20;;;13.50;;
13801;SDS011;6972;51.518;6.918;2023-02-20T04:13:07;21.70;;;12.23;;
13801;SDS011;6972;51.518;6.918;2023-02-20T04:15:35;27.17;;;13.30;;
13801;SDS011;6972;51.518;6.918;2023-02-20T04:18:07;23.20;;;12.67;;
13801;SDS011;6972;51.518;6.918;2023-02-20T04:20:35;25.33;;;13.00;;
13801;SDS011;6972;51.518;6.918;2023-02-20T04:23:06;22.47;;;12.37;;
13801;SDS011;6972;51.518;6.918;2023-02-20T04:28:03;24.60;;;12.47;;
13801;SDS011;6972;51.518;6.918;2023-02-20T04:30:30;19.47;;;11.13;;
13801;SDS011;6972;51.518;6.918;2023-02-20T04:32:56;25.93;;;11.63;;
13801;SDS011;6972;51.518;6.918;2023-02-20T04:35:21;22.07;;;11.50;;
13801;SDS011;6972;51.518;6.918;2023-02-20T04:37:48;25.80;;;11.20;;
13801;SDS011;6972;51.518;6.918;2023-02-20T04:40:15;22.67;;;11.50;;
13801;SDS011;6972;51.518;6.918;2023-02-20T04:42:42;21.00;;;10.57;;
13801;SDS011;6972;51.518;6.918;2023-02-20T04:45:08;25.30;;;11.23;;
13801;SDS011;6972;51.518;6.918;2023-02-20T04:47:34;22.37;;;11.40;;
13801;SDS011;6972;51.518;6.918;2023-02-20T04:50:00;28.33;;;11.60;;
13801;SDS011;6972;51.518;6.918;2023-02-20T04:52:29;24.70;;;10.23;;
13801;SDS011;6972;51.518;6.918;2023-02-20T04:54:55;23.30;;;10.23;;
13801;SDS011;6972;51.518;6.918;2023-02-20T04:57:20;19.60;;;10.00;;
13801;SDS011;6972;51.518;6.918;2023-02-20T04:59:47;22.50;;;10.00;;
13801;SDS011;6972;51.518;6.918;2023-02-20T05:02:13;21.80;;;10.20;;
13801;SDS011;6972;51.518;6.918;2023-02-20T05:04:39;23.77;;;10.20;;
13801;SDS011;6972;51.518;6.918;2023-02-20T05:07:05;25.93;;;9.67;;
13801;SDS011;6972;51.518;6.918;2023-02-20T05:09:31;22.37;;;9.93;;
13801;SDS011;6972;51.518;6.918;2023-02-20T05:11:56;19.83;;;9.90;;
13801;SDS011;6972;51.518;6.918;2023-02-20T05:14:22;22.30;;;10.13;;
13801;SDS011;6972;51.518;6.918;2023-02-20T05:16:48;18.80;;;9.20;;
13801;SDS011;6972;51.518;6.918;2023-02-20T05:19:15;21.13;;;9.73;;
13801;SDS011;6972;51.518;6.918;2023-02-20T05:21:44;24.93;;;10.23;;
13801;SDS011;6972;51.518;6.918;2023-02-20T05:24:29;21.10;;;9.50;;
13801;SDS011;6972;51.518;6.918;2023-02-20T05:26:56;15.07;;;8.63;;
13801;SDS011;6972;51.518;6.918;2023-02-20T05:29:22;19.77;;;8.87;;
13801;SDS011;6972;51.518;6.918;2023-02-20T05:31:48;18.67;;;9.13;;
13801;SDS011;6972;51.518;6.918;2023-02-20T05:34:14;23.63;;;9.40;;
13801;SDS011;6972;51.518;6.918;2023-02-20T05:36:40;17.17;;;8.90;;
13801;SDS011;6972;51.518;6.918;2023-02-20T05:39:06;16.27;;;9.60;;
13801;SDS011;6972;51.518;6.918;2023-02-20T05:41:32;19.80;;;9.43;;
13801;SDS011;6972;51.518;6.918;2023-02-20T05:43:58;20.30;;;9.50;;
13801;SDS011;6972;51.518;6.918;2023-02-20T05:46:25;19.30;;;9.50;;
13801;SDS011;6972;51.518;6.918;2023-02-20T05:48:51;23.13;;;9.53;;
13801;SDS011;6972;51.518;6.918;2023-02-20T05:51:18;23.87;;;9.80;;
13801;SDS011;6972;51.518;6.918;2023-02-20T05:53:45;15.70;;;9.17;;
13801;SDS011;6972;51.518;6.918;2023-02-20T05:56:10;23.23;;;9.30;;
13801;SDS011;6972;51.518;6.918;2023-02-20T05:58:36;22.73;;;10.57;;
13801;SDS011;6972;51.518;6.918;2023-02-20T06:01:01;24.77;;;10.90;;
13801;SDS011;6972;51.518;6.918;2023-02-20T06:03:27;21.13;;;9.47;;
13801;SDS011;6972;51.518;6.918;2023-02-20T06:05:54;20.77;;;9.90;;
13801;SDS011;6972;51.518;6.918;2023-02-20T06:08:20;21.30;;;10.57;;
13801;SDS011;6972;51.518;6.918;2023-02-20T06:10:46;25.33;;;10.23;;
13801;SDS011;6972;51.518;6.918;2023-02-20T06:13:12;21.07;;;9.33;;
13801;SDS011;6972;51.518;6.918;2023-02-20T06:15:38;17.80;;;10.10;;
13801;SDS011;6972;51.518;6.918;2023-02-20T06:18:04;24.37;;;10.23;;
13801;SDS011;6972;51.518;6.918;2023-02-20T06:20:30;19.03;;;10.87;;
13801;SDS011;6972;51.518;6.918;2023-02-20T06:22:55;26.20;;;11.13;;
13801;SDS011;6972;51.518;6.918;2023-02-20T06:25:22;19.83;;;10.63;;
13801;SDS011;6972;51.518;6.918;2023-02-20T06:27:48;25.20;;;11.53;;
13801;SDS011;6972;51.518;6.918;2023-02-20T06:30:14;21.30;;;12.07;;
13801;SDS011;6972;51.518;6.918;2023-02-20T06:32:39;23.03;;;11.33;;
13801;SDS011;6972;51.518;6.918;2023-02-20T06:35:06;22.50;;;11.67;;
13801;SDS011;6972;51.518;6.918;2023-02-20T06:37:32;25.43;;;11.93;;
13801;SDS011;6972;51.518;6.918;2023-02-20T06:39:58;21.93;;;11.53;;
13801;SDS011;6972;51.518;6.918;2023-02-20T06:42:24;18.27;;;11.03;;
13801;SDS011;6972;51.518;6.918;2023-02-20T06:44:49;20.87;;;11.20;;
13801;SDS011;6972;51.518;6.918;2023-02-20T06:47:15;23.00;;;11.07;;
13801;SDS011;6972;51.518;6.918;2023-02-20T06:49:41;21.47;;;11.37;;
13801;SDS011;6972;51.518;6.918;2023-02-20T06:52:07;23.63;;;11.63;;
13801;SDS011;6972;51.518;6.918;2023-02-20T06:54:34;24.43;;;10.87;;
13801;SDS011;6972;51.518;6.918;2023-02-20T06:57:03;20.07;;;11.07;;
13801;SDS011;6972;51.518;6.918;2023-02-20T06:59:29;28.60;;;12.90;;
13801;SDS011;6972;51.518;6.918;2023-02-20T07:01:55;24.60;;;11.97;;
13801;SDS011;6972;51.518;6.918;2023-02-20T07:04:21;37.50;;;13.67;;
13801;SDS011;6972;51.518;6.918;2023-02-20T07:06:50;26.50;;;12.13;;
13801;SDS011;6972;51.518;6.918;2023-02-20T07:09:16;24.20;;;12.70;;
13801;SDS011;6972;51.518;6.918;2023-02-20T07:11:44;27.93;;;13.37;;
13801;SDS011;6972;51.518;6.918;2023-02-20T07:14:10;20.57;;;12.43;;
13801;SDS011;6972;51.518;6.918;2023-02-20T07:16:36;25.73;;;14.00;;
13801;SDS011;6972;51.518;6.918;2023-02-20T07:19:01;23.30;;;12.27;;
13801;SDS011;6972;51.518;6.918;2023-02-20T07:21:27;27.27;;;13.70;;
13801;SDS011;6972;51.518;6.918;2023-02-20T07:23:53;27.67;;;13.77;;
13801;SDS011;6972;51.518;6.918;2023-02-20T07:26:20;23.07;;;13.20;;
13801;SDS011;6972;51.518;6.918;2023-02-20T07:28:52;26.50;;;13.00;;
13801;SDS011;6972;51.518;6.918;2023-02-20T07:31:18;23.43;;;13.10;;
13801;SDS011;6972;51.518;6.918;2023-02-20T07:33:44;24.37;;;13.20;;
13801;SDS011;6972;51.518;6.918;2023-02-20T07:36:11;25.40;;;13.60;;
13801;SDS011;6972;51.518;6.918;2023-02-20T07:38:38;22.80;;;13.13;;
13801;SDS011;6972;51.518;6.918;2023-02-20T07:41:04;27.50;;;14.23;;
13801;SDS011;6972;51.518;6.918;2023-02-20T07:43:30;22.33;;;13.17;;
13801;SDS011;6972;51.518;6.918;2023-02-20T07:45:56;30.03;;;13.13;;
13801;SDS011;6972;51.518;6.918;2023-02-20T07:48:22;26.70;;;13.53;;
13801;SDS011;6972;51.518;6.918;2023-02-20T07:50:48;24.60;;;13.47;;
13801;SDS011;6972;51.518;6.918;2023-02-20T07:53:15;26.23;;;13.33;;
13801;SDS011;6972;51.518;6.918;2023-02-20T07:55:45;28.43;;;13.93;;
13801;SDS011;6972;51.518;6.918;2023-02-20T07:58:11;28.47;;;13.20;;
13801;SDS011;6972;51.518;6.918;2023-02-20T08:00:37;27.83;;;13.43;;
13801;SDS011;6972;51.518;6.918;2023-02-20T08:03:03;27.63;;;14.03;;
13801;SDS011;6972;51.518;6.918;2023-02-20T08:05:29;24.57;;;13.67;;
13801;SDS011;6972;51.518;6.918;2023-02-20T08:07:55;26.10;;;14.30;;
13801;SDS011;6972;51.518;6.918;2023-02-20T08:10:23;24.23;;;13.93;;
13801;SDS011;6972;51.518;6.918;2023-02-20T08:12:50;23.87;;;13.57;;
13801;SDS011;6972;51.518;6.918;2023-02-20T08:15:20;29.83;;;13.50;;
13801;SDS011;6972;51.518;6.918;2023-02-20T08:17:47;25.13;;;12.53;;
13801;SDS011;6972;51.518;6.918;2023-02-20T08:20:13;26.00;;;12.80;;
13801;SDS011;6972;51.518;6.918;2023-02-20T08:22:40;25.57;;;13.33;;
13801;SDS011;6972;51.518;6.918;2023-02-20T08:25:06;22.93;;;12.93;;
13801;SDS011;6972;51.518;6.918;2023-02-20T08:27:32;26.40;;;12.93;;
13801;SDS011;6972;51.518;6.918;2023-02-20T08:30:02;24.33;;;13.37;;
13801;SDS011;6972;51.518;6.918;2023-02-20T08:32:28;25.10;;;13.73;;
13801;SDS011;6972;51.518;6.918;2023-02-20T08:34:54;22.83;;;12.87;;
13801;SDS011;6972;51.518;6.918;2023-02-20T08:37:20;34.50;;;14.03;;
13801;SDS011;6972;51.518;6.918;2023-02-20T08:39:46;25.50;;;14.07;;
13801;SDS011;6972;51.518;6.918;2023-02-20T08:42:13;26.57;;;14.23;;
13801;SDS011;6972;51.518;6.918;2023-02-20T08:44:40;25.50;;;12.60;;
13801;SDS011;6972;51.518;6.918;2023-02-20T08:47:06;24.33;;;12.97;;
13801;SDS011;6972;51.518;6.918;2023-02-20T08:49:32;24.43;;;13.70;;
13801;SDS011;6972;51.518;6.918;2023-02-20T08:51:58;28.63;;;12.83;;
13801;SDS011;6972;51.518;6.918;2023-02-20T08:54:24;23.97;;;12.57;;
13801;SDS011;6972;51.518;6.918;2023-02-20T08:56:50;27.23;;;13.93;;
13801;SDS011;6972;51.518;6.918;2023-02-20T08:59:16;30.33;;;14.00;;
13801;SDS011;6972;51.518;6.918;2023-02-20T09:01:42;31.40;;;13.63;;
13801;SDS011;6972;51.518;6.918;2023-02-20T09:04:08;25.47;;;13.77;;
13801;SDS011;6972;51.518;6.918;2023-02-20T09:06:34;27.30;;;13.67;;
13801;SDS011;6972;51.518;6.918;2023-02-20T09:09:00;24.03;;;12.67;;
13801;SDS011;6972;51.518;6.918;2023-02-20T09:11:27;23.17;;;12.77;;
13801;SDS011;6972;51.518;6.918;2023-02-20T09:13:53;25.63;;;12.87;;
13801;SDS011;6972;51.518;6.918;2023-02-20T09:16:20;25.43;;;13.03;;
13801;SDS011;6972;51.518;6.918;2023-02-20T09:18:46;27.33;;;12.57;;
13801;SDS011;6972;51.518;6.918;2023-02-20T09:21:14;26.60;;;12.57;;
13801;SDS011;6972;51.518;6.918;2023-02-20T09:23:41;24.30;;;12.77;;
13801;SDS011;6972;51.518;6.918;2023-02-20T09:26:07;25.20;;;12.83;;
13801;SDS011;6972;51.518;6.918;2023-02-20T09:28:33;25.13;;;13.00;;
13801;SDS011;6972;51.518;6.918;2023-02-20T09:30:59;24.93;;;12.87;;
13801;SDS011;6972;51.518;6.918;2023-02-20T09:33:25;25.30;;;12.10;;
13801;SDS011;6972;51.518;6.918;2023-02-20T09:35:51;23.50;;;12.77;;
13801;SDS011;6972;51.518;6.918;2023-02-20T09:38:19;26.73;;;12.40;;
13801;SDS011;6972;51.518;6.918;2023-02-20T09:40:52;21.43;;;12.43;;
13801;SDS011;6972;51.518;6.918;2023-02-20T09:51:32;26.33;;;12.07;;
13801;SDS011;6972;51.518;6.918;2023-02-20T09:54:09;29.03;;;13.13;;
13801;SDS011;6972;51.518;6.918;2023-02-20T09:56:42;25.93;;;12.47;;
13801;SDS011;6972;51.518;6.918;2023-02-20T09:59:23;24.33;;;12.13;;
13801;SDS011;6972;51.518;6.918;2023-02-20T10:01:58;23.23;;;11.67;;
13801;SDS011;6972;51.518;6.918;2023-02-20T10:04:31;25.57;;;12.37;;
13801;SDS011;6972;51.518;6.918;2023-02-20T10:10:16;24.50;;;11.83;;
13801;SDS011;6972;51.518;6.918;2023-02-20T10:12:54;21.77;;;11.17;;
13801;SDS011;6972;51.518;6.918;2023-02-20T10:15:25;22.60;;;11.03;;
13801;SDS011;6972;51.518;6.918;2023-02-20T10:20:53;21.53;;;10.93;;
13801;SDS011;6972;51.518;6.918;2023-02-20T10:26:12;27.67;;;10.87;;
13801;SDS011;6972;51.518;6.918;2023-02-20T10:28:46;26.53;;;10.83;;
13801;SDS011;6972;51.518;6.918;2023-02-20T10:31:32;23.93;;;11.30;;
13801;SDS011;6972;51.518;6.918;2023-02-20T10:34:08;27.50;;;10.73;;
13801;SDS011;6972;51.518;6.918;2023-02-20T10:36:46;20.53;;;10.57;;
13801;SDS011;6972;51.518;6.918;2023-02-20T10:39:16;17.07;;;9.83;;
13801;SDS011;6972;51.518;6.918;2023-02-20T10:41:49;19.63;;;10.80;;
13801;SDS011;6972;51.518;6.918;2023-02-20T10:47:36;21.57;;;9.87;;
13801;SDS011;6972;51.518;6.918;2023-02-20T10:50:19;21.50;;;10.20;;
13801;SDS011;6972;51.518;6.918;2023-02-20T10:52:54;25.27;;;10.27;;
13801;SDS011;6972;51.518;6.918;2023-02-20T10:57:55;20.47;;;10.67;;
13801;SDS011;6972;51.518;6.918;2023-02-20T11:03:14;26.87;;;10.60;;
13801;SDS011;6972;51.518;6.918;2023-02-20T11:05:50;23.65;;;10.45;;
13801;SDS011;6972;51.518;6.918;2023-02-20T11:08:18;20.20;;;10.25;;
13801;SDS011;6972;51.518;6.918;2023-02-20T11:10:48;16.00;;;9.73;;
13801;SDS011;6972;51.518;6.918;2023-02-20T11:13:21;19.93;;;9.87;;
13801;SDS011;6972;51.518;6.918;2023-02-20T11:15:49;15.37;;;9.43;;
13801;SDS011;6972;51.518;6.918;2023-02-20T11:18:25;19.53;;;10.27;;
13801;SDS011;6972;51.518;6.918;2023-02-20T11:20:59;19.27;;;10.23;;
13801;SDS011;6972;51.518;6.918;2023-02-20T11:26:12;22.30;;;9.87;;
13801;SDS011;6972;51.518;6.918;2023-02-20T11:28:44;20.53;;;10.43;;
13801;SDS011;6972;51.518;6.918;2023-02-20T11:31:10;20.13;;;9.73;;
13801;SDS011;6972;51.518;6.918;2023-02-20T11:33:41;17.25;;;8.85;;
13801;SDS011;6972;51.518;6.918;2023-02-20T11:36:16;19.35;;;9.48;;
13801;SDS011;6972;51.518;6.918;2023-02-20T11:38:47;19.23;;;9.65;;
13801;SDS011;6972;51.518;6.918;2023-02-20T11:43:46;21.50;;;9.50;;
13801;SDS011;6972;51.518;6.918;2023-02-20T11:46:21;19.13;;;9.37;;
13801;SDS011;6972;51.518;6.918;2023-02-20T11:49:01;17.50;;;9.83;;
13801;SDS011;6972;51.518;6.918;2023-02-20T11:56:52;17.10;;;9.10;;
13801;SDS011;6972;51.518;6.918;2023-02-20T11:59:25;19.20;;;9.50;;
13801;SDS011;6972;51.518;6.918;2023-02-20T12:01:54;20.23;;;9.47;;
13801;SDS011;6972;51.518;6.918;2023-02-20T12:04:22;13.17;;;9.17;;
13801;SDS011;6972;51.518;6.918;2023-02-20T12:06:48;22.80;;;9.23;;
13801;SDS011;6972;51.518;6.918;2023-02-20T12:09:18;19.43;;;9.63;;
13801;SDS011;6972;51.518;6.918;2023-02-20T12:11:48;19.10;;;9.20;;
13801;SDS011;6972;51.518;6.918;2023-02-20T12:14:18;19.43;;;10.20;;
13801;SDS011;6972;51.518;6.918;2023-02-20T12:17:01;21.13;;;10.47;;
13801;SDS011;6972;51.518;6.918;2023-02-20T12:22:36;24.00;;;9.83;;
13801;SDS011;6972;51.518;6.918;2023-02-20T12:28:03;13.90;;;9.20;;
13801;SDS011;6972;51.518;6.918;2023-02-20T12:47:35;19.77;;;9.60;;
13801;SDS011;6972;51.518;6.918;2023-02-20T12:50:12;16.53;;;8.80;;
13801;SDS011;6972;51.518;6.918;2023-02-20T12:52:58;18.40;;;9.43;;
13801;SDS011;6972;51.518;6.918;2023-02-20T12:58:24;18.80;;;9.77;;
13801;SDS011;6972;51.518;6.918;2023-02-20T13:01:11;20.27;;;9.68;;
13801;SDS011;6972;51.518;6.918;2023-02-20T13:06:39;23.63;;;10.20;;
13801;SDS011;6972;51.518;6.918;2023-02-20T13:09:23;20.73;;;9.97;;
13801;SDS011;6972;51.518;6.918;2023-02-20T13:12:00;21.67;;;9.80;;
13801;SDS011;6972;51.518;6.918;2023-02-20T13:22:35;21.37;;;9.77;;
13801;SDS011;6972;51.518;6.918;2023-02-20T13:28:30;19.20;;;8.90;;
13801;SDS011;6972;51.518;6.918;2023-02-20T13:31:22;19.07;;;9.20;;
13801;SDS011;6972;51.518;6.918;2023-02-20T13:33:46;16.33;;;9.27;;
13801;SDS011;6972;51.518;6.918;2023-02-20T13:46:56;24.05;;;10.40;;
13801;SDS011;6972;51.518;6.918;2023-02-20T13:57:54;20.23;;;9.80;;
13801;SDS011;6972;51.518;6.918;2023-02-20T14:03:23;20.30;;;10.40;;
13801;SDS011;6972;51.518;6.918;2023-02-20T14:06:09;19.75;;;10.52;;
13801;SDS011;6972;51.518;6.918;2023-02-20T14:08:39;24.03;;;11.37;;
13801;SDS011;6972;51.518;6.918;2023-02-20T14:13:39;26.10;;;11.33;;
13801;SDS011;6972;51.518;6.918;2023-02-20T14:18:58;20.65;;;11.07;;
13801;SDS011;6972;51.518;6.918;2023-02-20T14:21:29;29.73;;;10.98;;
13801;SDS011;6972;51.518;6.918;2023-02-20T14:23:57;20.43;;;10.53;;
13801;SDS011;6972;51.518;6.918;2023-02-20T14:26:48;22.48;;;12.00;;
13801;SDS011;6972;51.518;6.918;2023-02-20T14:29:33;29.40;;;12.87;;
13801;SDS011;6972;51.518;6.918;2023-02-20T14:32:01;18.63;;;11.57;;
13801;SDS011;6972;51.518;6.918;2023-02-20T14:39:56;27.43;;;12.77;;
13801;SDS011;6972;51.518;6.918;2023-02-20T14:42:30;27.80;;;12.60;;
13801;SDS011;6972;51.518;6.918;2023-02-20T14:45:00;18.00;;;11.77;;
13801;SDS011;6972;51.518;6.918;2023-02-20T14:47:29;21.77;;;12.20;;
13801;SDS011;6972;51.518;6.918;2023-02-20T14:52:41;29.23;;;13.80;;
13801;SDS011;6972;51.518;6.918;2023-02-20T14:55:13;23.20;;;12.73;;
13801;SDS011;6972;51.518;6.918;2023-02-20T14:57:40;26.83;;;13.03;;
13801;SDS011;6972;51.518;6.918;2023-02-20T15:00:20;25.60;;;13.03;;
13801;SDS011;6972;51.518;6.918;2023-02-20T15:02:49;22.85;;;13.15;;
13801;SDS011;6972;51.518;6.918;2023-02-20T15:05:29;23.10;;;12.23;;
13801;SDS011;6972;51.518;6.918;2023-02-20T15:08:12;26.40;;;13.53;;
13801;SDS011;6972;51.518;6.918;2023-02-20T15:10:50;26.38;;;13.95;;
13801;SDS011;6972;51.518;6.918;2023-02-20T15:13:20;27.42;;;12.75;;
13801;SDS011;6972;51.518;6.918;2023-02-20T15:15:52;28.58;;;13.02;;
13801;SDS011;6972;51.518;6.918;2023-02-20T15:20:58;28.08;;;13.73;;
13801;SDS011;6972;51.518;6.918;2023-02-20T15:23:28;25.08;;;12.65;;
13801;SDS011;6972;51.518;6.918;2023-02-20T15:25:56;31.23;;;12.20;;
13801;SDS011;6972;51.518;6.918;2023-02-20T15:28:27;26.42;;;12.68;;
13801;SDS011;6972;51.518;6.918;2023-02-20T15:33:36;24.57;;;12.73;;
13801;SDS011;6972;51.518;6.918;2023-02-20T15:36:04;20.67;;;12.00;;
13801;SDS011;6972;51.518;6.918;2023-02-20T15:38:32;25.83;;;12.60;;
13801;SDS011;6972;51.518;6.918;2023-02-20T15:41:01;25.50;;;13.05;;
13801;SDS011;6972;51.518;6.918;2023-02-20T15:43:27;22.02;;;11.95;;
13801;SDS011;6972;51.518;6.918;2023-02-20T15:45:53;26.13;;;12.77;;
13801;SDS011;6972;51.518;6.918;2023-02-20T15:48:19;23.88;;;11.68;;
13801;SDS011;6972;51.518;6.918;2023-02-20T15:50:46;22.02;;;12.07;;
13801;SDS011;6972;51.518;6.918;2023-02-20T15:53:19;21.83;;;12.10;;
13801;SDS011;6972;51.518;6.918;2023-02-20T15:55:54;25.50;;;11.87;;
13801;SDS011;6972;51.518;6.918;2023-02-20T16:00:48;26.13;;;12.33;;
13801;SDS011;6972;51.518;6.918;2023-02-20T16:03:15;23.77;;;12.37;;
13801;SDS011;6972;51.518;6.918;2023-02-20T16:05:41;22.27;;;11.70;;
13801;SDS011;6972;51.518;6.918;2023-02-20T16:08:07;20.47;;;11.23;;
13801;SDS011;6972;51.518;6.918;2023-02-20T16:10:33;29.20;;;12.13;;
13801;SDS011;6972;51.518;6.918;2023-02-20T16:12:59;29.73;;;11.60;;
13801;SDS011;6972;51.518;6.918;2023-02-20T16:15:29;22.02;;;11.18;;
13801;SDS011;6972;51.518;6.918;2023-02-20T16:17:55;17.03;;;11.37;;
13801;SDS011;6972;51.518;6.918;2023-02-20T16:22:49;21.45;;;10.18;;
13801;SDS011;6972;51.518;6.918;2023-02-20T16:25:15;27.70;;;11.18;;
13801;SDS011;6972;51.518;6.918;2023-02-20T16:27:42;22.50;;;10.75;;
13801;SDS011;6972;51.518;6.918;2023-02-20T16:30:19;21.40;;;10.50;;
13801;SDS011;6972;51.518;6.918;2023-02-20T16:32:49;20.63;;;10.23;;
13801;SDS011;6972;51.518;6.918;2023-02-20T16:35:16;22.20;;;11.30;;
13801;SDS011;6972;51.518;6.918;2023-02-20T16:37:42;17.27;;;9.40;;
13801;SDS011;6972;51.518;6.918;2023-02-20T16:40:08;20.33;;;9.90;;
13801;SDS011;6972;51.518;6.918;2023-02-20T16:42:35;20.58;;;11.18;;
13801;SDS011;6972;51.518;6.918;2023-02-20T16:45:20;18.75;;;9.82;;
13801;SDS011;6972;51.518;6.918;2023-02-20T16:47:49;24.10;;;10.02;;
13801;SDS011;6972;51.518;6.918;2023-02-20T16:50:18;16.98;;;10.23;;
13801;SDS011;6972;51.518;6.918;2023-02-20T16:52:50;14.60;;;9.77;;
13801;SDS011;6972;51.518;6.918;2023-02-20T16:57:43;17.13;;;10.33;;
13801;SDS011;6972;51.518;6.918;2023-02-20T17:00:16;18.48;;;11.13;;
13801;SDS011;6972;51.518;6.918;2023-02-20T17:02:43;26.02;;;11.15;;
13801;SDS011;6972;51.518;6.918;2023-02-20T17:05:12;19.55;;;10.48;;
13801;SDS011;6972;51.518;6.918;2023-02-20T17:07:38;20.13;;;10.63;;
13801;SDS011;6972;51.518;6.918;2023-02-20T17:10:05;18.50;;;10.35;;
13801;SDS011;6972;51.518;6.918;2023-02-20T17:12:32;16.08;;;10.15;;
13801;SDS011;6972;51.518;6.918;2023-02-20T17:15:02;17.87;;;10.53;;
13801;SDS011;6972;51.518;6.918;2023-02-20T17:17:29;19.67;;;10.60;;
13801;SDS011;6972;51.518;6.918;2023-02-20T17:20:02;17.05;;;9.98;;
13801;SDS011;6972;51.518;6.918;2023-02-20T17:22:29;17.27;;;10.60;;
13801;SDS011;6972;51.518;6.918;2023-02-20T17:24:55;20.13;;;10.30;;
13801;SDS011;6972;51.518;6.918;2023-02-20T17:27:22;19.88;;;9.32;;
13801;SDS011;6972;51.518;6.918;2023-02-20T17:29:48;26.15;;;10.35;;
13801;SDS011;6972;51.518;6.918;2023-02-20T17:32:15;19.07;;;10.13;;
13801;SDS011;6972;51.518;6.918;2023-02-20T17:34:41;19.60;;;10.43;;